createdAt,value
2022-12-14T00:01:28.505Z,-8.66
2022-12-14T00:03:56.100Z,-8.13
2022-12-14T00:06:32.958Z,-7.33
2022-12-14T00:09:03.184Z,-6.83
2022-12-14T00:11:29.917Z,-7.75
2022-12-14T00:13:59.076Z,-7.12
2022-12-14T00:16:28.623Z,-6.81
2022-12-14T00:18:57.780Z,-5.87
2022-12-14T00:21:25.073Z,-5.91
2022-12-14T00:23:52.712Z,-6.60
2022-12-14T00:26:23.972Z,-5.96
2022-12-14T00:28:52.361Z,-6.58
2022-12-14T00:31:19.756Z,-6.74
2022-12-14T00:33:46.789Z,-6.65
2022-12-14T00:36:13.585Z,-6.21
2022-12-14T00:38:40.978Z,-5.99
2022-12-14T00:41:08.444Z,-5.58
2022-12-14T00:43:35.610Z,-5.49
2022-12-14T00:46:02.720Z,-5.38
2022-12-14T00:48:30.222Z,-5.18
2022-12-14T00:50:57.689Z,-5.37
2022-12-14T00:53:25.368Z,-5.85
2022-12-14T00:55:52.280Z,-5.71
2022-12-14T00:58:20.844Z,-6.12
2022-12-14T01:00:57.802Z,-5.99
2022-12-14T01:03:24.923Z,-5.38
2022-12-14T01:05:51.656Z,-6.32
2022-12-14T01:08:18.379Z,-6.53
2022-12-14T01:10:44.898Z,-6.26
2022-12-14T01:13:11.733Z,-6.03
2022-12-14T01:15:38.469Z,-6.16
2022-12-14T01:18:05.113Z,-5.94
2022-12-14T01:20:31.707Z,-6.04
2022-12-14T01:22:58.235Z,-5.77
2022-12-14T01:25:25.347Z,-5.69
2022-12-14T01:27:51.911Z,-5.83
2022-12-14T01:30:19.304Z,-5.74
2022-12-14T01:32:46.870Z,-5.93
2022-12-14T01:35:13.615Z,-5.89
2022-12-14T01:37:40.099Z,-6.05
2022-12-14T01:40:07.001Z,-5.78
2022-12-14T01:42:37.475Z,-5.89
2022-12-14T01:45:05.897Z,-5.72
2022-12-14T01:47:43.484Z,-5.55
2022-12-14T01:50:18.607Z,-5.51
2022-12-14T01:52:48.283Z,-5.70
2022-12-14T01:55:26.805Z,-5.57
2022-12-14T01:58:07.002Z,-5.42
2022-12-14T02:00:33.463Z,-5.39
2022-12-14T02:03:42.046Z,-5.60
2022-12-14T02:06:21.729Z,-5.51
2022-12-14T02:08:50.918Z,-5.60
2022-12-14T02:11:36.885Z,-5.44
2022-12-14T02:14:04.204Z,-5.70
2022-12-14T02:16:31.671Z,-5.77
2022-12-14T02:18:58.114Z,-5.59
2022-12-14T02:21:57.948Z,-5.52
2022-12-14T02:24:48.979Z,-5.63
2022-12-14T02:27:46.793Z,-5.60
2022-12-14T02:30:19.737Z,-5.63
2022-12-14T02:33:08.300Z,-5.52
2022-12-14T02:35:43.544Z,-5.38
2022-12-14T02:38:30.204Z,-5.58
2022-12-14T02:41:13.449Z,-5.65
2022-12-14T02:43:59.006Z,-5.41
2022-12-14T02:46:50.383Z,-5.54
2022-12-14T02:49:38.707Z,-5.79
2022-12-14T02:52:21.158Z,-5.56
2022-12-14T02:54:57.877Z,-5.63
2022-12-14T02:57:32.009Z,-5.51
2022-12-14T03:00:01.960Z,-5.40
2022-12-14T03:02:30.322Z,-5.30
2022-12-14T03:04:58.525Z,-5.41
2022-12-14T03:07:36.614Z,-5.17
2022-12-14T03:10:29.683Z,-5.21
2022-12-14T03:13:31.719Z,-5.31
2022-12-14T03:16:04.811Z,-5.24
2022-12-14T03:18:37.877Z,-5.11
2022-12-14T03:21:10.114Z,-5.05
2022-12-14T03:23:39.686Z,-5.33
2022-12-14T03:26:15.229Z,-5.34
2022-12-14T03:28:55.167Z,-5.41
2022-12-14T03:31:29.123Z,-5.62
2022-12-14T03:33:58.428Z,-5.23
2022-12-14T03:36:34.891Z,-5.38
2022-12-14T03:39:05.585Z,-5.32
2022-12-14T03:42:01.070Z,-5.34
2022-12-14T03:44:49.420Z,-5.32
2022-12-14T03:47:44.652Z,-5.43
2022-12-14T03:50:43.465Z,-5.31
2022-12-14T03:53:12.655Z,-5.29
2022-12-14T03:56:07.425Z,-5.24
2022-12-14T03:58:46.450Z,-5.17
2022-12-14T04:01:26.561Z,-4.94
2022-12-14T04:04:11.544Z,-5.17
2022-12-14T04:07:03.948Z,-5.19
2022-12-14T04:09:58.341Z,-5.27
2022-12-14T04:12:51.441Z,-5.26
2022-12-14T04:15:53.844Z,-5.10
2022-12-14T04:18:55.822Z,-5.33
2022-12-14T04:21:33.145Z,-5.25
2022-12-14T04:24:24.272Z,-5.35
2022-12-14T04:26:58.075Z,-5.23
2022-12-14T04:29:51.525Z,-5.25
2022-12-14T04:32:23.213Z,-5.21
2022-12-14T04:34:54.217Z,-5.27
2022-12-14T04:37:24.682Z,-5.00
2022-12-14T04:40:00.807Z,-5.00
2022-12-14T04:42:32.154Z,-5.14
2022-12-14T04:45:06.958Z,-5.09
2022-12-14T04:47:38.671Z,-5.10
2022-12-14T04:50:30.348Z,-4.96
2022-12-14T04:53:03.135Z,-5.17
2022-12-14T04:55:39.367Z,-5.09
2022-12-14T04:58:12.028Z,-5.09
2022-12-14T05:01:04.021Z,-5.12
2022-12-14T05:03:35.419Z,-5.21
2022-12-14T05:06:04.737Z,-5.08
2022-12-14T05:08:49.893Z,-5.21
2022-12-14T05:11:52.548Z,-5.06
2022-12-14T05:14:22.967Z,-5.22
2022-12-14T05:16:49.954Z,-4.96
2022-12-14T05:19:16.718Z,-5.06
2022-12-14T05:21:48.937Z,-4.93
2022-12-14T05:24:16.621Z,-5.01
2022-12-14T05:26:43.853Z,-4.90
2022-12-14T05:29:10.334Z,-5.29
2022-12-14T05:31:36.939Z,-5.07
2022-12-14T05:34:03.709Z,-4.88
2022-12-14T05:36:30.160Z,-4.81
2022-12-14T05:38:56.676Z,-4.92
2022-12-14T05:41:23.098Z,-5.25
2022-12-14T05:43:49.516Z,-5.21
2022-12-14T05:46:16.207Z,-5.16
2022-12-14T05:48:46.136Z,-5.11
2022-12-14T05:51:15.536Z,-5.00
2022-12-14T05:53:42.003Z,-4.97
2022-12-14T05:56:09.980Z,-4.87
2022-12-14T05:58:36.644Z,-4.95
2022-12-14T06:01:06.144Z,-5.11
2022-12-14T06:03:32.650Z,-5.10
2022-12-14T06:06:11.545Z,-4.95
2022-12-14T06:08:40.467Z,-4.99
2022-12-14T06:11:10.559Z,-5.10
2022-12-14T06:13:38.941Z,-4.92
2022-12-14T06:16:16.084Z,-4.92
2022-12-14T06:18:45.097Z,-5.10
2022-12-14T06:21:13.433Z,-5.06
2022-12-14T06:23:40.079Z,-5.01
2022-12-14T06:26:07.337Z,-5.00
2022-12-14T06:28:34.396Z,-4.95
2022-12-14T06:31:01.300Z,-5.15
2022-12-14T06:33:28.704Z,-5.27
2022-12-14T06:35:55.416Z,-5.18
2022-12-14T06:38:22.006Z,-4.92
2022-12-14T06:40:48.415Z,-5.07
2022-12-14T06:43:14.863Z,-5.14
2022-12-14T06:45:41.306Z,-5.09
2022-12-14T06:48:07.899Z,-4.97
2022-12-14T06:50:34.623Z,-5.08
2022-12-14T06:53:01.586Z,-5.16
2022-12-14T06:55:28.125Z,-4.93
2022-12-14T06:57:55.333Z,-4.71
2022-12-14T07:00:23.701Z,-4.63
2022-12-14T07:02:51.007Z,-4.96
2022-12-14T07:05:17.572Z,-4.84
2022-12-14T07:07:44.263Z,-4.91
2022-12-14T07:10:12.775Z,-4.84
2022-12-14T07:12:39.307Z,-4.71
2022-12-14T07:15:06.343Z,-4.82
2022-12-14T07:17:35.434Z,-4.62
2022-12-14T07:20:01.850Z,-4.74
2022-12-14T07:22:28.294Z,-4.83
2022-12-14T07:24:54.750Z,-4.54
2022-12-14T07:27:21.474Z,-4.65
2022-12-14T07:29:47.903Z,-4.83
2022-12-14T07:32:14.325Z,-4.64
2022-12-14T07:34:40.733Z,-4.70
2022-12-14T07:37:07.244Z,-4.77
2022-12-14T07:39:33.672Z,-4.72
2022-12-14T07:42:00.107Z,-4.84
2022-12-14T07:44:29.028Z,-4.75
2022-12-14T07:46:55.470Z,-4.61
2022-12-14T07:49:22.014Z,-4.50
2022-12-14T07:51:48.528Z,-4.43
2022-12-14T07:54:15.078Z,-4.51
2022-12-14T07:56:43.269Z,-4.69
2022-12-14T07:59:15.239Z,-4.65
2022-12-14T08:01:42.773Z,-4.66
2022-12-14T08:04:15.384Z,-4.41
2022-12-14T08:06:42.352Z,-4.39
2022-12-14T08:09:10.503Z,-4.45
2022-12-14T08:11:37.804Z,-4.35
2022-12-14T08:14:19.752Z,-4.27
2022-12-14T08:16:48.096Z,-4.18
2022-12-14T08:19:15.221Z,-4.19
2022-12-14T08:21:41.744Z,-4.09
2022-12-14T08:24:10.943Z,-3.93
2022-12-14T08:26:37.822Z,-3.91
2022-12-14T08:29:05.115Z,-3.84
2022-12-14T08:31:31.717Z,-3.81
2022-12-14T08:33:59.983Z,-3.91
2022-12-14T08:36:29.647Z,-3.85
2022-12-14T08:39:03.071Z,-3.85
2022-12-14T08:41:30.212Z,-3.87
2022-12-14T08:43:59.000Z,-3.79
2022-12-14T08:46:27.710Z,-3.69
2022-12-14T08:48:55.511Z,-3.69
2022-12-14T08:51:23.691Z,-3.65
2022-12-14T08:53:50.833Z,-3.50
2022-12-14T08:56:20.708Z,-3.50
2022-12-14T08:58:47.500Z,-3.46
2022-12-14T09:01:17.301Z,-3.45
2022-12-14T09:03:45.244Z,-3.38
2022-12-14T09:06:23.738Z,-3.33
2022-12-14T09:08:50.747Z,-3.34
2022-12-14T09:11:19.439Z,-3.33
2022-12-14T09:13:47.002Z,-3.28
2022-12-14T09:16:17.081Z,-3.25
2022-12-14T09:18:45.432Z,-3.24
2022-12-14T09:21:11.985Z,-3.22
2022-12-14T09:23:39.890Z,-3.14
2022-12-14T09:26:16.787Z,-3.14
2022-12-14T09:28:49.687Z,-3.11
2022-12-14T09:31:19.789Z,-3.09
2022-12-14T09:33:46.515Z,-3.03
2022-12-14T09:36:18.926Z,-3.05
2022-12-14T09:38:51.197Z,-3.02
2022-12-14T09:41:36.651Z,-3.01
2022-12-14T09:44:21.468Z,-3.03
2022-12-14T09:46:59.237Z,-2.97
2022-12-14T09:49:29.338Z,-3.01
2022-12-14T09:51:59.573Z,-3.01
2022-12-14T09:54:33.184Z,-2.93
2022-12-14T09:57:04.715Z,-2.91
2022-12-14T09:59:33.893Z,-2.88
2022-12-14T10:02:33.923Z,-2.78
2022-12-14T10:05:15.790Z,-2.78
2022-12-14T10:07:59.232Z,-2.76
2022-12-14T10:10:36.800Z,-2.73
2022-12-14T10:13:30.735Z,-2.75
2022-12-14T10:16:15.906Z,-2.75
2022-12-14T10:19:09.885Z,-2.71
2022-12-14T10:21:52.423Z,-2.69
2022-12-14T10:24:27.063Z,-2.65
2022-12-14T10:26:55.678Z,-2.62
2022-12-14T10:29:42.133Z,-2.56
2022-12-14T10:32:22.491Z,-2.60
2022-12-14T10:34:50.456Z,-2.46
2022-12-14T10:37:26.487Z,-2.45
2022-12-14T10:40:29.265Z,-2.38
2022-12-14T10:43:18.739Z,-2.41
2022-12-14T10:45:56.533Z,-2.44
2022-12-14T10:48:41.467Z,-2.39
2022-12-14T10:51:13.066Z,-2.40
2022-12-14T10:54:11.098Z,-2.39
2022-12-14T10:56:41.863Z,-2.30
2022-12-14T10:59:17.706Z,-2.30
2022-12-14T11:01:47.135Z,-2.23
2022-12-14T11:04:31.545Z,-2.19
2022-12-14T11:07:01.141Z,-2.09
2022-12-14T11:09:28.269Z,-2.15
2022-12-14T11:12:15.974Z,-2.11
2022-12-14T11:14:51.547Z,-2.16
2022-12-14T11:17:42.186Z,-2.06
2022-12-14T11:20:08.639Z,-2.02
2022-12-14T11:22:53.387Z,-2.04
2022-12-14T11:25:40.900Z,-2.02
2022-12-14T11:28:37.013Z,-1.94
2022-12-14T11:31:28.488Z,-1.94
2022-12-14T11:33:58.032Z,-1.98
2022-12-14T11:36:41.999Z,-1.98
2022-12-14T11:39:14.560Z,-1.95
2022-12-14T11:41:43.884Z,-1.90
2022-12-14T11:44:16.090Z,-1.94
2022-12-14T11:47:02.442Z,-1.90
2022-12-14T11:49:34.586Z,-1.90
2022-12-14T11:52:05.479Z,-1.86
2022-12-14T11:54:33.828Z,-1.94
2022-12-14T11:57:08.413Z,-1.87
2022-12-14T11:59:42.177Z,-1.89
2022-12-14T12:02:18.519Z,-1.92
2022-12-14T12:04:49.364Z,-1.88
2022-12-14T12:07:28.223Z,-1.86
2022-12-14T12:09:55.432Z,-1.81
2022-12-14T12:12:23.502Z,-1.86
2022-12-14T12:14:55.542Z,-1.80
2022-12-14T12:17:40.392Z,-1.80
2022-12-14T12:20:16.337Z,-1.80
2022-12-14T12:22:46.470Z,-1.76
2022-12-14T12:25:28.602Z,-1.82
2022-12-14T12:28:03.251Z,-1.82
2022-12-14T12:30:35.833Z,-1.81
2022-12-14T12:33:10.504Z,-1.84
2022-12-14T12:35:46.546Z,-1.89
2022-12-14T12:38:21.740Z,-1.90
2022-12-14T12:41:02.394Z,-1.90
2022-12-14T12:43:36.609Z,-1.90
2022-12-14T12:46:15.404Z,-1.91
2022-12-14T12:48:49.410Z,-1.90
2022-12-14T12:51:22.129Z,-1.87
2022-12-14T12:53:53.812Z,-1.90
2022-12-14T12:56:25.224Z,-1.93
2022-12-14T12:58:53.472Z,-1.91
2022-12-14T13:01:26.247Z,-1.91
2022-12-14T13:03:59.708Z,-1.89
2022-12-14T13:06:54.417Z,-1.90
2022-12-14T13:09:37.585Z,-1.89
2022-12-14T13:12:07.974Z,-1.87
2022-12-14T13:14:42.164Z,-1.81
2022-12-14T13:17:41.562Z,-1.83
2022-12-14T13:20:19.085Z,-1.83
2022-12-14T13:22:47.770Z,-1.84
2022-12-14T13:25:23.761Z,-1.88
2022-12-14T13:28:24.974Z,-1.83
2022-12-14T13:31:03.125Z,-1.79
2022-12-14T13:33:45.624Z,-1.80
2022-12-14T13:36:36.328Z,-1.83
2022-12-14T13:39:33.734Z,-1.87
2022-12-14T13:42:09.651Z,-1.85
2022-12-14T13:44:59.411Z,-1.87
2022-12-14T13:47:33.635Z,-1.87
2022-12-14T13:50:34.984Z,-1.87
2022-12-14T13:52:57.608Z,-1.86
2022-12-14T13:55:35.604Z,-1.86
2022-12-14T13:58:39.013Z,-1.90
2022-12-14T14:01:14.422Z,-1.89
2022-12-14T14:03:47.155Z,-1.87
2022-12-14T14:06:19.671Z,-1.95
2022-12-14T14:08:51.014Z,-1.94
2022-12-14T14:11:39.738Z,-1.90
2022-12-14T14:14:22.348Z,-1.90
2022-12-14T14:16:55.063Z,-1.82
2022-12-14T14:19:26.727Z,-1.80
2022-12-14T14:22:22.883Z,-1.81
2022-12-14T14:24:57.654Z,-1.77
2022-12-14T14:27:36.143Z,-1.74
2022-12-14T14:30:20.594Z,-1.72
2022-12-14T14:32:47.004Z,-1.70
2022-12-14T14:35:36.633Z,-1.68
2022-12-14T14:38:24.696Z,-1.67
2022-12-14T14:41:15.959Z,-1.65
2022-12-14T14:43:49.665Z,-1.67
2022-12-14T14:46:22.176Z,-1.66
2022-12-14T14:48:54.545Z,-1.68
2022-12-14T14:51:25.295Z,-1.70
2022-12-14T14:54:44.794Z,-1.68
2022-12-14T14:57:47.143Z,-1.73
2022-12-14T15:00:13.826Z,-1.71
2022-12-14T15:02:42.398Z,-1.72
2022-12-14T15:08:18.120Z,-1.74
2022-12-14T15:10:46.503Z,-1.83
2022-12-14T15:13:46.144Z,-1.84
2022-12-14T15:16:30.087Z,-1.76
2022-12-14T15:19:33.744Z,-1.76
2022-12-14T15:22:04.269Z,-1.79
2022-12-14T15:24:37.775Z,-1.75
2022-12-14T15:27:17.324Z,-1.72
2022-12-14T15:29:46.675Z,-1.76
2022-12-14T15:32:18.179Z,-1.75
2022-12-14T15:34:54.241Z,-1.83
2022-12-14T15:37:26.821Z,-1.83
2022-12-14T15:40:16.775Z,-1.84
2022-12-14T15:42:51.688Z,-1.79
2022-12-14T15:45:22.096Z,-1.86
2022-12-14T15:47:49.422Z,-1.75
2022-12-14T15:50:26.678Z,-1.74
2022-12-14T15:52:58.308Z,-1.80
2022-12-14T15:55:35.102Z,-1.82
2022-12-14T15:58:30.554Z,-1.81
2022-12-14T16:01:13.764Z,-1.76
2022-12-14T16:03:44.990Z,-1.77
2022-12-14T16:06:14.122Z,-1.80
2022-12-14T16:08:52.662Z,-1.78
2022-12-14T16:11:37.267Z,-1.78
2022-12-14T16:14:16.242Z,-1.82
2022-12-14T16:16:42.998Z,-1.86
2022-12-14T16:19:26.659Z,-1.88
2022-12-14T16:22:26.872Z,-1.87
2022-12-14T16:25:08.493Z,-1.86
2022-12-14T16:27:40.963Z,-1.84
2022-12-14T16:30:18.261Z,-1.86
2022-12-14T16:32:49.873Z,-1.83
2022-12-14T16:35:25.752Z,-1.83
2022-12-14T16:37:55.784Z,-1.85
2022-12-14T16:40:38.529Z,-1.86
2022-12-14T16:43:07.465Z,-1.85
2022-12-14T16:45:43.223Z,-1.85
2022-12-14T16:48:18.185Z,-1.85
2022-12-14T16:51:08.925Z,-1.94
2022-12-14T16:53:31.380Z,-2.07
2022-12-14T16:56:20.747Z,-2.18
2022-12-14T16:59:00.865Z,-1.99
2022-12-14T17:01:28.110Z,-1.88
2022-12-14T17:04:05.345Z,-1.82
2022-12-14T17:06:53.588Z,-1.90
2022-12-14T17:09:26.032Z,-1.90
2022-12-14T17:11:55.891Z,-1.95
2022-12-14T17:14:22.309Z,-2.03
2022-12-14T17:16:52.980Z,-2.13
2022-12-14T17:19:27.036Z,-2.04
2022-12-14T17:21:53.512Z,-2.11
2022-12-14T17:24:22.152Z,-2.30
2022-12-14T17:26:49.998Z,-2.33
2022-12-14T17:29:25.783Z,-2.09
2022-12-14T17:31:55.480Z,-2.09
2022-12-14T17:34:21.926Z,-2.16
2022-12-14T17:36:48.659Z,-1.93
2022-12-14T17:39:15.123Z,-1.83
2022-12-14T17:41:45.008Z,-1.89
2022-12-14T17:44:14.624Z,-1.92
2022-12-14T17:46:41.914Z,-2.05
2022-12-14T17:49:12.235Z,-2.03
2022-12-14T17:51:41.907Z,-2.04
2022-12-14T17:54:19.401Z,-2.07
2022-12-14T17:56:46.434Z,-2.02
2022-12-14T17:59:13.020Z,-1.99
2022-12-14T18:01:41.101Z,-2.03
2022-12-14T18:04:08.147Z,-2.18
2022-12-14T18:06:34.937Z,-2.27
2022-12-14T18:09:01.652Z,-2.09
2022-12-14T18:11:28.108Z,-2.16
2022-12-14T18:13:54.846Z,-2.11
2022-12-14T18:16:23.420Z,-2.03
2022-12-14T18:18:50.228Z,-2.03
2022-12-14T18:21:26.005Z,-2.07
2022-12-14T18:23:52.942Z,-2.09
2022-12-14T18:26:21.124Z,-2.20
2022-12-14T18:28:49.441Z,-2.07
2022-12-14T18:31:20.561Z,-2.00
2022-12-14T18:33:47.522Z,-2.03
2022-12-14T18:36:14.901Z,-2.25
2022-12-14T18:38:42.458Z,-2.06
2022-12-14T18:41:09.292Z,-1.97
2022-12-14T18:43:41.733Z,-1.96
2022-12-14T18:46:09.981Z,-1.93
2022-12-14T18:48:36.810Z,-2.04
2022-12-14T18:51:04.562Z,-2.00
2022-12-14T18:53:31.323Z,-2.04
2022-12-14T18:55:58.440Z,-2.03
2022-12-14T18:58:28.002Z,-2.03
2022-12-14T19:00:59.203Z,-2.05
2022-12-14T19:03:30.017Z,-2.01
2022-12-14T19:06:43.141Z,-2.03
2022-12-14T19:08:58.073Z,-2.08
2022-12-14T19:11:32.210Z,-2.08
2022-12-14T19:13:59.102Z,-2.14
2022-12-14T19:16:25.795Z,-2.08
2022-12-14T19:18:52.649Z,-2.01
2022-12-14T19:21:19.680Z,-2.07
2022-12-14T19:23:46.204Z,-2.03
2022-12-14T19:26:12.661Z,-2.00
2022-12-14T19:28:39.115Z,-2.07
2022-12-14T19:31:05.637Z,-2.05
2022-12-14T19:33:32.695Z,-2.09
2022-12-14T19:36:00.205Z,-2.13
2022-12-14T19:38:28.298Z,-2.15
2022-12-14T19:41:01.623Z,-2.16
2022-12-14T19:43:29.118Z,-2.13
2022-12-14T19:45:55.841Z,-2.10
2022-12-14T19:48:22.487Z,-2.21
2022-12-14T19:50:49.052Z,-2.27
2022-12-14T19:53:21.613Z,-2.23
2022-12-14T19:55:53.515Z,-2.21
2022-12-14T19:58:21.891Z,-2.18
2022-12-14T20:00:49.774Z,-2.15
2022-12-14T20:03:16.390Z,-2.14
2022-12-14T20:05:52.979Z,-2.15
2022-12-14T20:08:19.720Z,-2.16
2022-12-14T20:10:46.520Z,-2.43
2022-12-14T20:13:13.260Z,-2.25
2022-12-14T20:15:39.676Z,-2.27
2022-12-14T20:18:07.344Z,-2.26
2022-12-14T20:20:34.341Z,-2.24
2022-12-14T20:23:00.787Z,-2.28
2022-12-14T20:25:27.244Z,-2.24
2022-12-14T20:27:54.143Z,-2.27
2022-12-14T20:30:21.610Z,-2.28
2022-12-14T20:32:49.469Z,-2.27
2022-12-14T20:35:18.552Z,-2.39
2022-12-14T20:37:45.843Z,-2.53
2022-12-14T20:40:12.707Z,-2.54
2022-12-14T20:42:39.530Z,-2.55
2022-12-14T20:45:07.543Z,-2.99
2022-12-14T20:47:34.509Z,-2.63
2022-12-14T20:50:00.947Z,-2.48
2022-12-14T20:52:27.400Z,-3.08
2022-12-14T20:54:53.895Z,-2.59
2022-12-14T20:57:21.380Z,-4.87
2022-12-14T20:59:47.807Z,-4.79
2022-12-14T21:02:19.094Z,-3.78
2022-12-14T21:04:46.004Z,-2.99
2022-12-14T21:07:12.513Z,-2.74
2022-12-14T21:09:38.945Z,-2.58
2022-12-14T21:12:23.292Z,-2.56
2022-12-14T21:14:54.019Z,-2.94
2022-12-14T21:17:22.803Z,-2.63
2022-12-14T21:19:49.850Z,-2.69
2022-12-14T21:22:19.152Z,-2.71
2022-12-14T21:25:03.139Z,-2.65
2022-12-14T21:27:30.680Z,-2.64
2022-12-14T21:29:57.155Z,-2.86
2022-12-14T21:32:23.657Z,-3.02
2022-12-14T21:34:50.409Z,-3.04
2022-12-14T21:37:17.776Z,-3.39
2022-12-14T21:39:49.016Z,-3.82
2022-12-14T21:42:20.472Z,-3.94
2022-12-14T21:44:49.333Z,-3.63
2022-12-14T21:47:19.293Z,-4.39
2022-12-14T21:49:46.729Z,-4.58
2022-12-14T21:52:16.419Z,-4.17
2022-12-14T21:54:43.448Z,-3.28
2022-12-14T21:57:33.676Z,-2.98
2022-12-14T22:00:00.182Z,-3.10
2022-12-14T22:02:26.980Z,-3.12
2022-12-14T22:04:55.988Z,-4.35
2022-12-14T22:07:28.609Z,-5.33
2022-12-14T22:09:55.029Z,-5.14
2022-12-14T22:12:21.516Z,-4.61
2022-12-14T22:14:49.807Z,-4.75
2022-12-14T22:17:16.309Z,-4.39
2022-12-14T22:19:42.787Z,-3.43
2022-12-14T22:22:16.478Z,-4.73
2022-12-14T22:24:43.888Z,-4.23
2022-12-14T22:27:11.689Z,-4.21
2022-12-14T22:29:38.155Z,-4.41
2022-12-14T22:32:05.010Z,-4.06
2022-12-14T22:34:31.461Z,-4.29
2022-12-14T22:36:57.967Z,-4.72
2022-12-14T22:39:24.373Z,-4.63
2022-12-14T22:41:50.841Z,-4.28
2022-12-14T22:44:17.330Z,-4.11
2022-12-14T22:46:43.933Z,-3.90
2022-12-14T22:49:16.217Z,-3.72
2022-12-14T22:51:42.718Z,-3.95
2022-12-14T22:54:11.304Z,-3.85
2022-12-14T22:56:46.309Z,-4.23
2022-12-14T22:59:23.097Z,-3.87
2022-12-14T23:01:50.547Z,-4.29
2022-12-14T23:04:17.866Z,-3.60
2022-12-14T23:06:44.984Z,-3.54
2022-12-14T23:09:30.458Z,-4.60
2022-12-14T23:12:21.282Z,-4.21
2022-12-14T23:15:06.973Z,-3.79
2022-12-14T23:17:51.873Z,-4.63
2022-12-14T23:20:36.777Z,-4.52
2022-12-14T23:23:25.971Z,-3.94
2022-12-14T23:26:11.342Z,-4.75
2022-12-14T23:28:56.917Z,-4.04
2022-12-14T23:31:41.847Z,-3.58
2022-12-14T23:34:26.605Z,-4.00
2022-12-14T23:37:15.066Z,-4.34
2022-12-14T23:40:04.852Z,-3.64
2022-12-14T23:42:50.124Z,-3.48
2022-12-14T23:45:34.927Z,-4.50
2022-12-14T23:48:19.836Z,-4.44
2022-12-14T23:51:04.709Z,-4.06
2022-12-14T23:53:50.040Z,-5.15
2022-12-14T23:56:35.392Z,-5.25
2022-12-14T23:59:20.363Z,-4.81
